createdAt,value
2022-10-07T00:02:15.321Z,7.57
2022-10-07T00:04:37.326Z,7.58
2022-10-07T00:06:59.051Z,7.49
2022-10-07T00:09:20.602Z,7.46
2022-10-07T00:11:42.643Z,7.47
2022-10-07T00:14:09.284Z,7.41
2022-10-07T00:16:33.888Z,7.37
2022-10-07T00:18:58.519Z,7.37
2022-10-07T00:21:20.550Z,7.29
2022-10-07T00:23:43.636Z,7.20
2022-10-07T00:26:07.816Z,7.18
2022-10-07T00:28:29.733Z,6.99
2022-10-07T00:30:57.895Z,6.89
2022-10-07T00:33:19.462Z,7.00
2022-10-07T00:35:40.954Z,7.06
2022-10-07T00:38:02.477Z,7.12
2022-10-07T00:40:23.928Z,7.14
2022-10-07T00:42:45.383Z,7.23
2022-10-07T00:45:14.987Z,7.19
2022-10-07T00:47:36.825Z,7.22
2022-10-07T00:49:58.217Z,7.07
2022-10-07T00:52:24.317Z,7.07
2022-10-07T00:54:46.998Z,7.03
2022-10-07T00:57:09.016Z,7.00
2022-10-07T00:59:30.608Z,6.82
2022-10-07T01:01:52.065Z,6.93
2022-10-07T01:04:15.225Z,7.04
2022-10-07T01:06:39.305Z,6.97
2022-10-07T01:09:00.774Z,6.67
2022-10-07T01:11:57.206Z,6.76
2022-10-07T01:14:29.392Z,6.84
2022-10-07T01:17:11.455Z,6.86
2022-10-07T01:19:51.024Z,6.91
2022-10-07T01:22:41.424Z,6.89
2022-10-07T01:25:25.030Z,6.93
2022-10-07T01:27:55.849Z,6.83
2022-10-07T01:30:19.321Z,6.78
2022-10-07T01:32:47.895Z,6.65
2022-10-07T01:35:16.321Z,6.71
2022-10-07T01:37:41.685Z,6.87
2022-10-07T01:40:12.596Z,6.77
2022-10-07T01:42:34.240Z,6.80
2022-10-07T01:44:58.677Z,6.78
2022-10-07T01:47:20.374Z,6.57
2022-10-07T01:49:41.801Z,6.53
2022-10-07T01:52:31.321Z,6.66
2022-10-07T01:55:06.423Z,6.69
2022-10-07T01:57:53.960Z,6.67
2022-10-07T02:00:16.707Z,6.62
2022-10-07T02:03:14.939Z,6.61
2022-10-07T02:05:54.411Z,6.34
2022-10-07T02:08:43.614Z,6.47
2022-10-07T02:11:13.561Z,6.49
2022-10-07T02:13:45.289Z,6.50
2022-10-07T02:16:29.160Z,6.53
2022-10-07T02:18:52.649Z,6.19
2022-10-07T02:21:15.240Z,6.41
2022-10-07T02:23:40.514Z,6.38
2022-10-07T02:26:04.450Z,6.29
2022-10-07T02:28:26.997Z,6.25
2022-10-07T02:30:54.173Z,6.33
2022-10-07T02:33:17.866Z,6.32
2022-10-07T02:35:55.407Z,6.41
2022-10-07T02:38:18.486Z,6.44
2022-10-07T02:41:00.846Z,6.39
2022-10-07T02:43:39.111Z,6.40
2022-10-07T02:46:11.962Z,6.26
2022-10-07T02:48:40.075Z,6.14
2022-10-07T02:51:06.161Z,6.12
2022-10-07T02:53:32.130Z,6.16
2022-10-07T02:55:56.660Z,6.23
2022-10-07T02:58:19.693Z,6.13
2022-10-07T03:00:50.948Z,6.08
2022-10-07T03:03:12.597Z,6.22
2022-10-07T03:05:35.364Z,6.19
2022-10-07T03:08:00.513Z,6.22
2022-10-07T03:10:22.209Z,6.25
2022-10-07T03:12:44.129Z,6.14
2022-10-07T03:15:06.213Z,6.10
2022-10-07T03:17:27.665Z,6.01
2022-10-07T03:19:49.508Z,6.05
2022-10-07T03:22:11.200Z,6.03
2022-10-07T03:24:32.663Z,6.04
2022-10-07T03:26:54.208Z,6.08
2022-10-07T03:29:15.983Z,6.10
2022-10-07T03:31:37.599Z,6.14
2022-10-07T03:33:59.658Z,6.14
2022-10-07T03:36:21.146Z,6.12
2022-10-07T03:38:42.620Z,6.04
2022-10-07T03:41:06.989Z,5.97
2022-10-07T03:43:28.914Z,5.80
2022-10-07T03:45:51.057Z,5.94
2022-10-07T03:48:12.740Z,5.96
2022-10-07T03:50:34.402Z,5.95
2022-10-07T03:52:56.338Z,6.00
2022-10-07T03:55:18.019Z,6.00
2022-10-07T03:57:53.359Z,5.96
2022-10-07T04:00:21.132Z,5.94
2022-10-07T04:02:42.905Z,5.94
2022-10-07T04:05:04.721Z,5.92
2022-10-07T04:07:26.158Z,5.74
2022-10-07T04:09:47.647Z,5.54
2022-10-07T04:12:09.115Z,5.60
2022-10-07T04:14:30.591Z,5.70
2022-10-07T04:16:52.039Z,5.74
2022-10-07T04:19:13.736Z,5.75
2022-10-07T04:21:35.260Z,5.73
2022-10-07T04:23:56.775Z,5.82
2022-10-07T04:26:18.245Z,5.86
2022-10-07T04:28:40.702Z,5.65
2022-10-07T04:31:09.441Z,5.72
2022-10-07T04:33:31.148Z,5.76
2022-10-07T04:35:52.586Z,5.59
2022-10-07T04:38:15.946Z,5.54
2022-10-07T04:40:42.178Z,5.44
2022-10-07T04:43:22.381Z,5.59
2022-10-07T04:45:43.869Z,5.62
2022-10-07T04:48:06.106Z,5.60
2022-10-07T04:50:28.288Z,5.58
2022-10-07T04:52:49.749Z,5.53
2022-10-07T04:55:14.393Z,5.55
2022-10-07T04:57:35.849Z,5.55
2022-10-07T04:59:57.297Z,5.58
2022-10-07T05:02:18.819Z,5.59
2022-10-07T05:04:40.321Z,5.49
2022-10-07T05:07:01.799Z,5.56
2022-10-07T05:09:23.277Z,5.45
2022-10-07T05:11:45.295Z,5.24
2022-10-07T05:14:07.444Z,5.30
2022-10-07T05:16:28.927Z,5.41
2022-10-07T05:18:50.677Z,5.29
2022-10-07T05:21:12.110Z,5.41
2022-10-07T05:23:35.909Z,5.45
2022-10-07T05:26:02.261Z,5.19
2022-10-07T05:28:24.223Z,5.24
2022-10-07T05:30:45.808Z,5.04
2022-10-07T05:33:09.687Z,5.17
2022-10-07T05:35:32.139Z,5.23
2022-10-07T05:37:53.936Z,5.29
2022-10-07T05:40:15.646Z,5.21
2022-10-07T05:42:37.112Z,5.20
2022-10-07T05:44:58.545Z,5.25
2022-10-07T05:47:20.261Z,5.29
2022-10-07T05:49:41.735Z,5.38
2022-10-07T05:52:04.180Z,5.26
2022-10-07T05:54:25.732Z,5.17
2022-10-07T05:56:47.156Z,5.32
2022-10-07T05:59:08.672Z,5.34
2022-10-07T06:01:30.178Z,5.39
2022-10-07T06:03:54.228Z,5.50
2022-10-07T06:06:15.699Z,5.46
2022-10-07T06:08:37.167Z,5.20
2022-10-07T06:11:22.058Z,5.33
2022-10-07T06:13:48.070Z,5.48
2022-10-07T06:16:10.122Z,5.53
2022-10-07T06:18:32.008Z,5.62
2022-10-07T06:20:58.423Z,5.43
2022-10-07T06:23:19.898Z,5.52
2022-10-07T06:25:41.485Z,5.60
2022-10-07T06:28:03.222Z,5.71
2022-10-07T06:30:25.834Z,5.63
2022-10-07T06:32:47.357Z,5.70
2022-10-07T06:35:09.169Z,5.84
2022-10-07T06:37:32.114Z,5.82
2022-10-07T06:39:57.413Z,5.93
2022-10-07T06:42:20.865Z,5.97
2022-10-07T06:44:43.041Z,6.00
2022-10-07T06:47:07.881Z,6.11
2022-10-07T06:49:33.089Z,6.23
2022-10-07T06:51:54.556Z,6.20
2022-10-07T06:54:15.992Z,6.36
2022-10-07T06:56:37.757Z,6.44
2022-10-07T06:58:59.477Z,6.50
2022-10-07T07:01:21.063Z,6.71
2022-10-07T07:03:42.736Z,6.72
2022-10-07T07:06:05.059Z,6.85
2022-10-07T07:08:34.613Z,7.00
2022-10-07T07:10:56.240Z,7.08
2022-10-07T07:13:18.197Z,7.16
2022-10-07T07:15:40.389Z,7.29
2022-10-07T07:18:02.899Z,7.36
2022-10-07T07:20:24.331Z,7.44
2022-10-07T07:22:45.811Z,7.49
2022-10-07T07:25:10.110Z,7.57
2022-10-07T07:27:32.549Z,7.65
2022-10-07T07:29:54.042Z,7.75
2022-10-07T07:32:15.831Z,7.78
2022-10-07T07:34:38.325Z,7.86
2022-10-07T07:36:59.965Z,7.97
2022-10-07T07:39:21.475Z,8.02
2022-10-07T07:41:46.842Z,8.13
2022-10-07T07:44:11.328Z,8.27
2022-10-07T07:46:38.932Z,8.37
2022-10-07T07:49:00.990Z,8.35
2022-10-07T07:51:22.810Z,8.49
2022-10-07T07:53:45.408Z,8.58
2022-10-07T07:56:07.121Z,8.71
2022-10-07T07:58:29.972Z,8.73
2022-10-07T08:01:13.622Z,8.81
2022-10-07T08:03:39.024Z,8.97
2022-10-07T08:06:02.075Z,9.00
2022-10-07T08:08:23.532Z,9.13
2022-10-07T08:10:49.637Z,9.19
2022-10-07T08:13:13.567Z,9.27
2022-10-07T08:15:35.116Z,9.37
2022-10-07T08:17:56.725Z,9.58
2022-10-07T08:20:18.203Z,9.61
2022-10-07T08:22:39.643Z,9.72
2022-10-07T08:25:01.194Z,9.82
2022-10-07T08:27:22.637Z,9.93
2022-10-07T08:29:44.092Z,10.06
2022-10-07T08:32:05.565Z,10.19
2022-10-07T08:34:27.183Z,10.44
2022-10-07T08:36:50.548Z,10.58
2022-10-07T08:39:12.008Z,10.79
2022-10-07T08:42:04.174Z,11.00
2022-10-07T08:44:34.254Z,11.26
2022-10-07T08:47:17.807Z,11.30
2022-10-07T08:49:54.504Z,11.48
2022-10-07T08:52:32.721Z,11.79
2022-10-07T08:54:54.407Z,11.96
2022-10-07T08:57:28.627Z,12.13
2022-10-07T08:59:58.227Z,12.14
2022-10-07T09:02:31.610Z,12.35
2022-10-07T09:05:25.024Z,12.43
2022-10-07T09:07:58.077Z,12.64
2022-10-07T09:10:37.440Z,12.82
2022-10-07T09:13:03.700Z,12.83
2022-10-07T09:15:28.188Z,12.77
2022-10-07T09:17:59.135Z,12.87
2022-10-07T09:20:31.708Z,13.10
2022-10-07T09:22:57.368Z,13.44
2022-10-07T09:25:21.857Z,13.48
2022-10-07T09:27:43.719Z,13.58
2022-10-07T09:30:06.731Z,13.66
2022-10-07T09:32:28.309Z,13.55
2022-10-07T09:34:49.905Z,13.72
2022-10-07T09:37:27.707Z,13.92
2022-10-07T09:39:51.960Z,14.08
2022-10-07T09:42:35.181Z,14.14
2022-10-07T09:45:00.250Z,14.42
2022-10-07T09:47:29.186Z,14.42
2022-10-07T09:49:56.539Z,14.40
2022-10-07T09:52:23.276Z,14.59
2022-10-07T09:54:47.960Z,14.78
2022-10-07T09:57:25.109Z,14.81
2022-10-07T09:59:46.603Z,14.96
2022-10-07T10:02:13.859Z,15.08
2022-10-07T10:04:37.662Z,15.33
2022-10-07T10:07:06.516Z,15.60
2022-10-07T10:09:28.161Z,15.76
2022-10-07T10:12:11.000Z,16.07
2022-10-07T10:14:42.785Z,16.32
2022-10-07T10:17:05.038Z,16.66
2022-10-07T10:19:28.640Z,16.89
2022-10-07T10:21:57.636Z,17.20
2022-10-07T10:24:39.171Z,17.10
2022-10-07T10:27:12.518Z,17.27
2022-10-07T10:30:10.775Z,17.29
2022-10-07T10:33:04.963Z,17.46
2022-10-07T10:35:29.864Z,17.43
2022-10-07T10:38:00.454Z,17.56
2022-10-07T10:40:42.163Z,17.63
2022-10-07T10:43:25.419Z,17.72
2022-10-07T10:46:28.739Z,17.97
2022-10-07T10:49:16.536Z,17.93
2022-10-07T10:52:29.672Z,17.99
2022-10-07T10:55:12.906Z,18.12
2022-10-07T10:58:29.996Z,18.16
2022-10-07T11:01:34.344Z,18.54
2022-10-07T11:04:25.212Z,18.42
2022-10-07T11:07:01.815Z,18.49
2022-10-07T11:09:36.860Z,18.45
2022-10-07T11:12:03.561Z,18.46
2022-10-07T11:14:25.883Z,18.61
2022-10-07T11:16:55.333Z,18.72
2022-10-07T11:19:43.373Z,19.01
2022-10-07T11:22:13.754Z,19.37
2022-10-07T11:24:40.706Z,19.31
2022-10-07T11:27:20.387Z,19.49
2022-10-07T11:29:57.269Z,19.58
2022-10-07T11:32:31.011Z,19.87
2022-10-07T11:35:06.555Z,19.81
2022-10-07T11:38:03.304Z,19.77
2022-10-07T11:40:29.688Z,20.13
2022-10-07T11:42:54.636Z,20.04
2022-10-07T11:45:25.834Z,20.12
2022-10-07T11:47:52.852Z,20.46
2022-10-07T11:50:28.043Z,20.41
2022-10-07T11:52:53.220Z,20.39
2022-10-07T11:55:29.033Z,20.50
2022-10-07T11:58:02.077Z,20.75
2022-10-07T12:00:32.442Z,20.77
2022-10-07T12:02:57.873Z,21.06
2022-10-07T12:05:34.522Z,21.32
2022-10-07T12:07:58.679Z,21.51
2022-10-07T12:10:24.004Z,21.37
2022-10-07T12:12:46.567Z,21.36
2022-10-07T12:15:35.814Z,21.58
2022-10-07T12:18:06.321Z,21.28
2022-10-07T12:20:34.596Z,21.32
2022-10-07T12:23:21.955Z,21.49
2022-10-07T12:25:53.570Z,21.53
2022-10-07T12:28:40.848Z,21.58
2022-10-07T12:31:05.355Z,21.82
2022-10-07T12:33:43.242Z,21.82
2022-10-07T12:36:22.747Z,21.87
2022-10-07T12:38:45.994Z,21.62
2022-10-07T12:41:17.863Z,21.67
2022-10-07T12:43:49.945Z,21.48
2022-10-07T12:46:18.812Z,21.71
2022-10-07T12:48:46.897Z,21.82
2022-10-07T12:51:19.323Z,21.79
2022-10-07T12:53:41.792Z,21.78
2022-10-07T12:56:05.632Z,22.32
2022-10-07T12:59:04.318Z,22.30
2022-10-07T13:01:52.507Z,22.42
2022-10-07T13:04:30.500Z,22.38
2022-10-07T13:07:25.254Z,22.47
2022-10-07T13:10:40.832Z,22.57
2022-10-07T13:13:11.763Z,22.96
2022-10-07T13:15:43.992Z,22.47
2022-10-07T13:18:40.493Z,22.42
2022-10-07T13:21:15.318Z,22.78
2022-10-07T13:23:37.205Z,22.83
2022-10-07T13:26:01.089Z,22.89
2022-10-07T13:28:27.015Z,23.07
2022-10-07T13:30:50.555Z,22.74
2022-10-07T13:33:24.504Z,22.71
2022-10-07T13:35:45.967Z,22.41
2022-10-07T13:38:27.434Z,22.51
2022-10-07T13:41:04.429Z,22.51
2022-10-07T13:43:29.977Z,22.35
2022-10-07T13:45:51.635Z,22.26
2022-10-07T13:48:18.024Z,22.32
2022-10-07T13:50:39.532Z,22.28
2022-10-07T13:53:01.494Z,22.14
2022-10-07T13:55:25.975Z,22.10
2022-10-07T13:57:47.963Z,22.19
2022-10-07T14:00:12.454Z,22.09
2022-10-07T14:02:39.167Z,22.02
2022-10-07T14:05:04.921Z,21.92
2022-10-07T14:07:28.728Z,21.65
2022-10-07T14:10:09.633Z,21.65
2022-10-07T14:12:40.525Z,21.27
2022-10-07T14:15:12.517Z,21.22
2022-10-07T14:17:55.263Z,21.43
2022-10-07T14:20:34.816Z,21.29
2022-10-07T14:22:59.077Z,21.55
2022-10-07T14:25:27.913Z,21.28
2022-10-07T14:27:49.351Z,21.41
2022-10-07T14:30:58.573Z,21.56
2022-10-07T14:34:01.078Z,21.56
2022-10-07T14:36:23.131Z,21.48
2022-10-07T14:38:47.073Z,21.56
2022-10-07T14:41:10.239Z,21.57
2022-10-07T14:43:33.533Z,21.67
2022-10-07T14:45:55.072Z,21.32
2022-10-07T14:48:16.577Z,21.12
2022-10-07T14:50:38.458Z,21.08
2022-10-07T14:52:59.945Z,21.13
2022-10-07T14:55:27.327Z,21.28
2022-10-07T14:57:49.138Z,21.37
2022-10-07T15:00:19.257Z,21.30
2022-10-07T15:02:40.770Z,21.30
2022-10-07T15:05:02.271Z,21.47
2022-10-07T15:07:24.006Z,21.56
2022-10-07T15:09:46.665Z,21.52
2022-10-07T15:12:11.012Z,21.62
2022-10-07T15:14:33.109Z,21.60
2022-10-07T15:16:54.624Z,21.58
2022-10-07T15:19:16.241Z,21.60
2022-10-07T15:21:37.718Z,21.55
2022-10-07T15:24:01.710Z,21.64
2022-10-07T15:26:24.698Z,21.65
2022-10-07T15:28:50.411Z,21.85
2022-10-07T15:31:11.878Z,21.79
2022-10-07T15:33:34.496Z,21.65
2022-10-07T15:35:56.474Z,21.56
2022-10-07T15:38:17.933Z,21.43
2022-10-07T15:40:53.413Z,21.43
2022-10-07T15:43:14.892Z,21.45
2022-10-07T15:45:36.344Z,21.35
2022-10-07T15:48:00.445Z,21.36
2022-10-07T15:50:22.245Z,21.37
2022-10-07T15:52:43.967Z,21.41
2022-10-07T15:55:07.802Z,21.41
2022-10-07T15:57:29.690Z,21.45
2022-10-07T15:59:51.294Z,21.23
2022-10-07T16:02:15.868Z,21.27
2022-10-07T16:04:37.479Z,21.23
2022-10-07T16:06:59.568Z,21.15
2022-10-07T16:09:22.099Z,21.15
2022-10-07T16:11:43.672Z,21.08
2022-10-07T16:14:05.204Z,21.00
2022-10-07T16:16:28.014Z,20.88
2022-10-07T16:18:51.238Z,20.69
2022-10-07T16:21:19.017Z,20.49
2022-10-07T16:23:45.392Z,20.37
2022-10-07T16:26:09.375Z,20.16
2022-10-07T16:28:49.948Z,19.89
2022-10-07T16:31:11.469Z,19.72
2022-10-07T16:33:32.997Z,19.64
2022-10-07T16:35:54.462Z,19.56
2022-10-07T16:38:15.957Z,19.38
2022-10-07T16:40:37.555Z,19.28
2022-10-07T16:42:59.676Z,19.08
2022-10-07T16:45:23.108Z,19.08
2022-10-07T16:47:44.937Z,18.79
2022-10-07T16:50:10.889Z,18.76
2022-10-07T16:52:34.356Z,18.58
2022-10-07T16:54:55.897Z,18.46
2022-10-07T16:57:17.354Z,18.25
2022-10-07T16:59:39.629Z,17.99
2022-10-07T17:02:03.210Z,17.91
2022-10-07T17:04:25.286Z,17.83
2022-10-07T17:06:47.382Z,17.78
2022-10-07T17:09:08.834Z,17.84
2022-10-07T17:11:35.888Z,17.70
2022-10-07T17:14:18.895Z,17.64
2022-10-07T17:16:51.769Z,17.43
2022-10-07T17:19:17.737Z,17.58
2022-10-07T17:21:41.845Z,17.48
2022-10-07T17:24:04.327Z,17.35
2022-10-07T17:26:27.198Z,17.21
2022-10-07T17:28:49.799Z,17.18
2022-10-07T17:31:12.975Z,17.13
2022-10-07T17:33:35.500Z,17.08
2022-10-07T17:36:06.878Z,17.11
2022-10-07T17:38:35.591Z,17.11
2022-10-07T17:40:57.143Z,16.99
2022-10-07T17:43:18.619Z,16.84
2022-10-07T17:45:41.772Z,16.82
2022-10-07T17:48:04.047Z,16.77
2022-10-07T17:50:25.490Z,16.66
2022-10-07T17:52:46.964Z,16.45
2022-10-07T17:55:09.199Z,16.38
2022-10-07T17:57:32.213Z,16.33
2022-10-07T17:59:53.671Z,16.25
2022-10-07T18:02:15.147Z,16.21
2022-10-07T18:04:36.618Z,16.24
2022-10-07T18:06:58.871Z,16.20
2022-10-07T18:09:22.130Z,16.08
2022-10-07T18:12:02.211Z,16.07
2022-10-07T18:14:59.176Z,16.00
2022-10-07T18:17:21.125Z,15.93
2022-10-07T18:19:44.975Z,15.87
2022-10-07T18:22:06.551Z,15.80
2022-10-07T18:24:28.889Z,15.78
2022-10-07T18:26:50.473Z,15.69
2022-10-07T18:29:11.934Z,15.70
2022-10-07T18:31:33.505Z,15.64
2022-10-07T18:33:56.498Z,15.69
2022-10-07T18:36:19.427Z,15.51
2022-10-07T18:38:42.588Z,15.56
2022-10-07T18:41:06.559Z,15.58
2022-10-07T18:43:28.796Z,15.49
2022-10-07T18:46:01.593Z,15.30
2022-10-07T18:48:23.116Z,15.30
2022-10-07T18:50:51.787Z,15.32
2022-10-07T18:53:13.260Z,15.17
2022-10-07T18:55:38.943Z,15.15
2022-10-07T18:58:00.400Z,14.97
2022-10-07T19:00:22.514Z,14.98
2022-10-07T19:02:46.093Z,15.03
2022-10-07T19:05:07.877Z,14.92
2022-10-07T19:07:31.051Z,14.99
2022-10-07T19:09:52.528Z,14.90
2022-10-07T19:12:32.573Z,14.97
2022-10-07T19:14:54.229Z,14.74
2022-10-07T19:17:15.723Z,14.69
2022-10-07T19:19:40.918Z,14.76
2022-10-07T19:22:02.361Z,14.71
2022-10-07T19:24:43.783Z,14.70
2022-10-07T19:27:05.237Z,14.66
2022-10-07T19:29:27.236Z,14.56
2022-10-07T19:31:49.827Z,14.50
2022-10-07T19:34:14.348Z,14.47
2022-10-07T19:36:39.865Z,14.48
2022-10-07T19:39:02.490Z,14.35
2022-10-07T19:41:27.303Z,14.40
2022-10-07T19:43:49.232Z,14.16
2022-10-07T19:46:12.375Z,14.24
2022-10-07T19:48:34.615Z,14.22
2022-10-07T19:50:57.092Z,14.27
2022-10-07T19:53:18.520Z,14.23
2022-10-07T19:55:44.629Z,14.27
2022-10-07T19:58:06.092Z,14.23
2022-10-07T20:00:30.188Z,14.25
2022-10-07T20:02:56.226Z,13.90
2022-10-07T20:05:18.056Z,14.05
2022-10-07T20:07:39.502Z,14.10
2022-10-07T20:10:00.947Z,14.06
2022-10-07T20:12:22.396Z,14.03
2022-10-07T20:14:43.904Z,13.84
2022-10-07T20:17:06.666Z,13.97
2022-10-07T20:19:28.144Z,13.96
2022-10-07T20:21:49.643Z,13.83
2022-10-07T20:24:17.216Z,13.67
2022-10-07T20:26:39.015Z,13.70
2022-10-07T20:29:01.931Z,13.65
2022-10-07T20:31:25.810Z,13.61
2022-10-07T20:33:50.092Z,13.65
2022-10-07T20:36:13.542Z,13.74
2022-10-07T20:38:54.999Z,13.72
2022-10-07T20:41:35.164Z,13.59
2022-10-07T20:43:56.605Z,13.67
2022-10-07T20:46:18.087Z,13.69
2022-10-07T20:48:43.535Z,13.62
2022-10-07T20:51:08.306Z,13.51
2022-10-07T20:53:29.804Z,13.43
2022-10-07T20:55:51.274Z,13.51
2022-10-07T20:58:13.700Z,13.43
2022-10-07T21:00:35.153Z,13.40
2022-10-07T21:02:56.648Z,13.51
2022-10-07T21:05:18.111Z,13.34
2022-10-07T21:07:39.707Z,13.40
2022-10-07T21:10:01.171Z,13.45
2022-10-07T21:12:23.012Z,13.38
2022-10-07T21:14:44.571Z,13.39
2022-10-07T21:17:06.919Z,13.43
2022-10-07T21:19:31.597Z,13.44
2022-10-07T21:21:53.110Z,13.30
2022-10-07T21:24:14.631Z,13.48
2022-10-07T21:26:36.934Z,13.43
2022-10-07T21:28:58.372Z,13.47
2022-10-07T21:31:22.125Z,13.46
2022-10-07T21:33:46.330Z,13.45
2022-10-07T21:36:12.295Z,13.49
2022-10-07T21:38:34.639Z,13.35
2022-10-07T21:40:56.104Z,13.26
2022-10-07T21:43:18.577Z,13.38
2022-10-07T21:45:41.340Z,13.11
2022-10-07T21:48:02.806Z,13.19
2022-10-07T21:50:24.731Z,13.01
2022-10-07T21:52:46.333Z,13.21
2022-10-07T21:55:08.556Z,13.16
2022-10-07T21:57:29.977Z,13.15
2022-10-07T21:59:52.381Z,13.01
2022-10-07T22:02:13.913Z,12.99
2022-10-07T22:04:35.443Z,13.04
2022-10-07T22:07:16.399Z,13.02
2022-10-07T22:09:37.912Z,13.03
2022-10-07T22:11:59.461Z,12.86
2022-10-07T22:14:20.994Z,12.82
2022-10-07T22:16:42.701Z,12.79
2022-10-07T22:19:05.393Z,12.83
2022-10-07T22:21:29.492Z,12.72
2022-10-07T22:23:56.118Z,12.74
2022-10-07T22:26:18.928Z,12.67
2022-10-07T22:28:41.140Z,12.72
2022-10-07T22:31:04.200Z,12.75
2022-10-07T22:33:26.065Z,12.75
2022-10-07T22:35:47.595Z,12.68
2022-10-07T22:38:09.200Z,12.75
2022-10-07T22:40:30.695Z,12.78
2022-10-07T22:42:52.548Z,12.70
2022-10-07T22:45:14.100Z,12.74
2022-10-07T22:47:36.154Z,12.72
2022-10-07T22:49:57.642Z,12.41
2022-10-07T22:52:19.077Z,12.52
2022-10-07T22:54:40.704Z,12.50
2022-10-07T22:57:02.252Z,12.57
2022-10-07T22:59:23.721Z,12.58
2022-10-07T23:01:45.216Z,12.62
2022-10-07T23:04:06.721Z,12.53
2022-10-07T23:06:29.525Z,12.52
2022-10-07T23:08:51.020Z,12.53
2022-10-07T23:11:17.304Z,12.59
2022-10-07T23:13:38.798Z,12.62
2022-10-07T23:16:05.704Z,12.55
2022-10-07T23:18:28.593Z,12.54
2022-10-07T23:21:00.786Z,12.53
2022-10-07T23:23:22.287Z,12.45
2022-10-07T23:25:43.771Z,12.50
2022-10-07T23:28:05.260Z,12.60
2022-10-07T23:30:26.709Z,12.48
2022-10-07T23:32:48.656Z,12.45
2022-10-07T23:35:11.689Z,12.64
2022-10-07T23:37:33.137Z,12.60
2022-10-07T23:39:54.591Z,12.54
2022-10-07T23:42:16.069Z,12.60
2022-10-07T23:44:38.360Z,12.47
2022-10-07T23:46:59.800Z,12.36
2022-10-07T23:49:21.299Z,12.52
2022-10-07T23:51:42.769Z,12.64
2022-10-07T23:54:05.104Z,12.75
2022-10-07T23:56:26.730Z,12.62
2022-10-07T23:58:48.324Z,12.62
